sensor_id;sensor_type;location;lat;lon;timestamp;pressure;altitude;pressure_sealevel;temperature;humidity
8253;BME280;61313;48.396;10.008;2023-03-01T00:02:19;96814.22;;;0.16;63.09
8253;BME280;61313;48.396;10.008;2023-03-01T00:04:45;96812.53;;;0.23;63.09
8253;BME280;61313;48.396;10.008;2023-03-01T00:07:11;96805.69;;;0.34;63.01
8253;BME280;61313;48.396;10.008;2023-03-01T00:09:37;96807.31;;;0.06;63.50
8253;BME280;61313;48.396;10.008;2023-03-01T00:12:03;96808.22;;;0.17;63.35
8253;BME280;61313;48.396;10.008;2023-03-01T00:14:29;96797.88;;;0.10;63.74
8253;BME280;61313;48.396;10.008;2023-03-01T00:16:54;96798.75;;;0.23;63.96
8253;BME280;61313;48.396;10.008;2023-03-01T00:19:20;96803.81;;;-0.05;64.75
8253;BME280;61313;48.396;10.008;2023-03-01T00:21:47;96803.81;;;-0.08;64.61
8253;BME280;61313;48.396;10.008;2023-03-01T00:24:13;96804.69;;;-0.03;64.92
8253;BME280;61313;48.396;10.008;2023-03-01T00:26:39;96803.91;;;0.16;64.40
8253;BME280;61313;48.396;10.008;2023-03-01T00:29:05;96794.50;;;0.40;63.22
8253;BME280;61313;48.396;10.008;2023-03-01T00:31:32;96802.25;;;0.38;63.31
8253;BME280;61313;48.396;10.008;2023-03-01T00:34:04;96791.97;;;0.48;63.41
8253;BME280;61313;48.396;10.008;2023-03-01T00:36:33;96792.81;;;0.60;62.54
8253;BME280;61313;48.396;10.008;2023-03-01T00:39:00;96785.06;;;0.68;62.29
8253;BME280;61313;48.396;10.008;2023-03-01T00:41:25;96787.66;;;0.45;63.03
8253;BME280;61313;48.396;10.008;2023-03-01T00:43:54;96785.06;;;0.48;63.18
8253;BME280;61313;48.396;10.008;2023-03-01T00:46:23;96774.72;;;0.54;63.61
8253;BME280;61313;48.396;10.008;2023-03-01T00:48:49;96778.16;;;0.35;63.04
8253;BME280;61313;48.396;10.008;2023-03-01T00:51:18;96774.72;;;0.54;62.97
8253;BME280;61313;48.396;10.008;2023-03-01T00:53:44;96775.63;;;0.70;62.29
8253;BME280;61313;48.396;10.008;2023-03-01T00:56:12;96760.97;;;0.51;63.52
8253;BME280;61313;48.396;10.008;2023-03-01T00:58:39;96766.13;;;0.46;64.16
8253;BME280;61313;48.396;10.008;2023-03-01T01:03:46;96766.94;;;0.33;63.98
8253;BME280;61313;48.396;10.008;2023-03-01T01:06:34;96761.81;;;0.39;63.67
8253;BME280;61313;48.396;10.008;2023-03-01T01:09:02;96756.63;;;0.34;64.07
8253;BME280;61313;48.396;10.008;2023-03-01T01:11:29;96747.97;;;0.09;64.82
8253;BME280;61313;48.396;10.008;2023-03-01T01:13:55;96754.88;;;0.13;64.58
8253;BME280;61313;48.396;10.008;2023-03-01T01:16:23;96751.47;;;0.30;64.30
8253;BME280;61313;48.396;10.008;2023-03-01T01:18:50;96748.84;;;0.13;64.56
8253;BME280;61313;48.396;10.008;2023-03-01T01:21:18;96748.00;;;0.28;64.38
8253;BME280;61313;48.396;10.008;2023-03-01T01:23:44;96737.72;;;0.43;64.09
8253;BME280;61313;48.396;10.008;2023-03-01T01:26:13;96735.13;;;0.34;63.62
8253;BME280;61313;48.396;10.008;2023-03-01T01:28:39;96735.94;;;0.11;64.43
8253;BME280;61313;48.396;10.008;2023-03-01T01:31:06;96734.22;;;0.13;64.42
8253;BME280;61313;48.396;10.008;2023-03-01T01:33:32;96730.75;;;-0.01;65.33
8253;BME280;61313;48.396;10.008;2023-03-01T01:35:57;96724.81;;;0.34;63.47
8253;BME280;61313;48.396;10.008;2023-03-01T01:38:23;96725.66;;;0.33;63.61
8253;BME280;61313;48.396;10.008;2023-03-01T01:40:49;96728.22;;;0.30;63.70
8253;BME280;61313;48.396;10.008;2023-03-01T01:43:24;96719.63;;;0.45;64.61
8253;BME280;61313;48.396;10.008;2023-03-01T01:45:50;96719.66;;;0.63;63.31
8253;BME280;61313;48.396;10.008;2023-03-01T01:48:23;96722.22;;;0.98;61.73
8253;BME280;61313;48.396;10.008;2023-03-01T01:50:59;96723.09;;;0.67;62.63
8253;BME280;61313;48.396;10.008;2023-03-01T01:53:26;96707.59;;;0.68;62.38
8253;BME280;61313;48.396;10.008;2023-03-01T01:55:55;96705.88;;;0.55;62.45
8253;BME280;61313;48.396;10.008;2023-03-01T01:58:24;96712.78;;;0.74;62.76
8253;BME280;61313;48.396;10.008;2023-03-01T02:00:53;96707.63;;;0.80;61.99
8253;BME280;61313;48.396;10.008;2023-03-01T02:03:22;96711.91;;;0.68;62.74
8253;BME280;61313;48.396;10.008;2023-03-01T02:08:38;96705.88;;;0.67;62.88
8253;BME280;61313;48.396;10.008;2023-03-01T02:11:03;96697.25;;;0.54;62.49
8253;BME280;61313;48.396;10.008;2023-03-01T02:13:33;96698.13;;;0.49;63.76
8253;BME280;61313;48.396;10.008;2023-03-01T02:16:03;96693.81;;;0.41;63.71
8253;BME280;61313;48.396;10.008;2023-03-01T02:18:28;96702.44;;;0.67;63.17
8253;BME280;61313;48.396;10.008;2023-03-01T02:23:25;96700.72;;;0.95;61.72
8253;BME280;61313;48.396;10.008;2023-03-01T02:28:40;96689.50;;;0.85;62.06
8253;BME280;61313;48.396;10.008;2023-03-01T02:31:08;96686.91;;;0.87;62.61
8253;BME280;61313;48.396;10.008;2023-03-01T02:33:53;96687.81;;;0.67;63.40
8253;BME280;61313;48.396;10.008;2023-03-01T02:36:21;96689.53;;;0.60;63.10
8253;BME280;61313;48.396;10.008;2023-03-01T02:38:51;96692.09;;;0.59;63.13
8253;BME280;61313;48.396;10.008;2023-03-01T02:41:19;96680.91;;;0.65;62.32
8253;BME280;61313;48.396;10.008;2023-03-01T02:43:46;96682.66;;;0.50;63.17
8253;BME280;61313;48.396;10.008;2023-03-01T02:46:21;96678.34;;;0.31;64.46
8253;BME280;61313;48.396;10.008;2023-03-01T02:48:53;96677.47;;;0.30;64.46
8253;BME280;61313;48.396;10.008;2023-03-01T02:56:34;96669.72;;;0.32;63.89
8253;BME280;61313;48.396;10.008;2023-03-01T02:59:00;96668.88;;;0.45;64.18
8253;BME280;61313;48.396;10.008;2023-03-01T03:01:29;96674.91;;;0.36;65.03
8253;BME280;61313;48.396;10.008;2023-03-01T03:04:09;96666.28;;;0.60;63.47
8253;BME280;61313;48.396;10.008;2023-03-01T03:06:36;96668.00;;;0.46;64.32
8253;BME280;61313;48.396;10.008;2023-03-01T03:09:03;96660.25;;;0.35;64.53
8253;BME280;61313;48.396;10.008;2023-03-01T03:11:28;96668.00;;;0.25;64.61
8253;BME280;61313;48.396;10.008;2023-03-01T03:13:54;96661.13;;;0.40;63.81
8253;BME280;61313;48.396;10.008;2023-03-01T03:16:20;96664.56;;;0.36;64.64
8253;BME280;61313;48.396;10.008;2023-03-01T03:18:46;96672.31;;;0.53;63.25
8253;BME280;61313;48.396;10.008;2023-03-01T03:21:12;96660.28;;;0.52;64.51
8253;BME280;61313;48.396;10.008;2023-03-01T03:23:38;96656.81;;;0.53;63.54
8253;BME280;61313;48.396;10.008;2023-03-01T03:26:05;96649.06;;;0.52;63.64
8253;BME280;61313;48.396;10.008;2023-03-01T03:28:32;96652.50;;;0.58;63.91
8253;BME280;61313;48.396;10.008;2023-03-01T03:30:58;96660.25;;;0.58;64.15
8253;BME280;61313;48.396;10.008;2023-03-01T03:33:31;96653.38;;;0.39;64.11
8253;BME280;61313;48.396;10.008;2023-03-01T03:35:58;96651.66;;;0.50;63.63
8253;BME280;61313;48.396;10.008;2023-03-01T03:38:24;96655.09;;;0.40;63.89
8253;BME280;61313;48.396;10.008;2023-03-01T03:40:52;96649.06;;;0.30;64.73
8253;BME280;61313;48.396;10.008;2023-03-01T03:43:22;96653.38;;;0.37;65.23
8253;BME280;61313;48.396;10.008;2023-03-01T03:45:49;96652.53;;;0.31;64.78
8253;BME280;61313;48.396;10.008;2023-03-01T03:48:16;96649.94;;;0.40;64.11
8253;BME280;61313;48.396;10.008;2023-03-01T03:50:48;96655.97;;;0.40;64.10
8253;BME280;61313;48.396;10.008;2023-03-01T03:53:14;96649.94;;;0.15;65.03
8253;BME280;61313;48.396;10.008;2023-03-01T03:55:40;96651.66;;;0.07;65.02
8253;BME280;61313;48.396;10.008;2023-03-01T03:58:08;96643.91;;;0.21;64.98
8253;BME280;61313;48.396;10.008;2023-03-01T04:00:38;96650.78;;;0.07;64.80
8253;BME280;61313;48.396;10.008;2023-03-01T04:03:04;96642.19;;;0.22;65.04
8253;BME280;61313;48.396;10.008;2023-03-01T04:05:30;96633.59;;;0.36;64.40
8253;BME280;61313;48.396;10.008;2023-03-01T04:07:56;96640.47;;;0.20;64.18
8253;BME280;61313;48.396;10.008;2023-03-01T04:10:34;96651.63;;;0.12;64.64
8253;BME280;61313;48.396;10.008;2023-03-01T04:13:01;96636.16;;;0.23;64.23
8253;BME280;61313;48.396;10.008;2023-03-01T04:15:27;96643.03;;;-0.06;65.20
8253;BME280;61313;48.396;10.008;2023-03-01T04:17:54;96637.00;;;-0.03;65.43
8253;BME280;61313;48.396;10.008;2023-03-01T04:20:26;96633.56;;;0.16;64.69
8253;BME280;61313;48.396;10.008;2023-03-01T04:22:57;96641.31;;;0.16;64.93
8253;BME280;61313;48.396;10.008;2023-03-01T04:25:23;96636.16;;;0.13;65.33
8253;BME280;61313;48.396;10.008;2023-03-01T04:27:50;96633.56;;;0.12;65.19
8253;BME280;61313;48.396;10.008;2023-03-01T04:30:15;96635.31;;;0.05;65.03
8253;BME280;61313;48.396;10.008;2023-03-01T04:32:41;96631.00;;;-0.02;65.25
8253;BME280;61313;48.396;10.008;2023-03-01T04:35:08;96638.72;;;-0.08;65.80
8253;BME280;61313;48.396;10.008;2023-03-01T04:37:33;96637.88;;;0.05;65.69
8253;BME280;61313;48.396;10.008;2023-03-01T04:40:01;96630.13;;;-0.04;66.01
8253;BME280;61313;48.396;10.008;2023-03-01T04:42:33;96617.25;;;0.20;65.16
8253;BME280;61313;48.396;10.008;2023-03-01T04:44:58;96621.56;;;0.17;65.06
8253;BME280;61313;48.396;10.008;2023-03-01T04:47:25;96616.41;;;0.22;64.77
8253;BME280;61313;48.396;10.008;2023-03-01T04:49:50;96620.69;;;0.39;63.80
8253;BME280;61313;48.396;10.008;2023-03-01T04:52:16;96611.22;;;0.25;64.91
8253;BME280;61313;48.396;10.008;2023-03-01T04:54:41;96620.69;;;0.26;64.43
8253;BME280;61313;48.396;10.008;2023-03-01T04:57:08;96613.78;;;0.28;65.03
8253;BME280;61313;48.396;10.008;2023-03-01T04:59:33;96619.84;;;0.19;65.08
8253;BME280;61313;48.396;10.008;2023-03-01T05:02:01;96615.50;;;-0.11;65.89
8253;BME280;61313;48.396;10.008;2023-03-01T05:04:27;96617.22;;;-0.13;65.57
8253;BME280;61313;48.396;10.008;2023-03-01T05:06:52;96617.22;;;-0.06;65.37
8253;BME280;61313;48.396;10.008;2023-03-01T05:09:18;96616.38;;;0.08;64.94
8253;BME280;61313;48.396;10.008;2023-03-01T05:11:44;96612.94;;;0.12;65.51
8253;BME280;61313;48.396;10.008;2023-03-01T05:14:11;96613.78;;;0.06;65.33
8253;BME280;61313;48.396;10.008;2023-03-01T05:16:37;96608.66;;;0.20;65.01
8253;BME280;61313;48.396;10.008;2023-03-01T05:19:03;96613.78;;;0.09;64.94
8253;BME280;61313;48.396;10.008;2023-03-01T05:21:40;96604.31;;;-0.03;65.51
8253;BME280;61313;48.396;10.008;2023-03-01T05:24:26;96605.19;;;-0.04;65.92
8253;BME280;61313;48.396;10.008;2023-03-01T05:26:52;96607.78;;;0.07;65.73
8253;BME280;61313;48.396;10.008;2023-03-01T05:29:19;96601.75;;;0.17;65.34
8253;BME280;61313;48.396;10.008;2023-03-01T05:31:53;96608.66;;;0.34;64.68
8253;BME280;61313;48.396;10.008;2023-03-01T05:34:26;96611.22;;;0.20;64.94
8253;BME280;61313;48.396;10.008;2023-03-01T05:36:53;96605.16;;;0.47;64.06
8253;BME280;61313;48.396;10.008;2023-03-01T05:39:20;96608.63;;;0.60;62.87
8253;BME280;61313;48.396;10.008;2023-03-01T05:41:52;96600.88;;;0.35;63.93
8253;BME280;61313;48.396;10.008;2023-03-01T05:44:18;96609.50;;;0.28;63.63
8253;BME280;61313;48.396;10.008;2023-03-01T05:46:44;96602.63;;;0.24;63.98
8253;BME280;61313;48.396;10.008;2023-03-01T05:49:10;96596.59;;;0.07;64.83
8253;BME280;61313;48.396;10.008;2023-03-01T05:51:39;96599.19;;;0.01;64.72
8253;BME280;61313;48.396;10.008;2023-03-01T05:54:08;96609.50;;;0.30;64.46
8253;BME280;61313;48.396;10.008;2023-03-01T05:56:35;96604.31;;;-0.13;65.36
8253;BME280;61313;48.396;10.008;2023-03-01T05:59:03;96605.19;;;-0.08;64.97
8253;BME280;61313;48.396;10.008;2023-03-01T06:01:33;96602.63;;;0.19;63.94
8253;BME280;61313;48.396;10.008;2023-03-01T06:04:07;96606.91;;;0.02;64.87
8253;BME280;61313;48.396;10.008;2023-03-01T06:06:36;96610.34;;;-0.20;65.87
8253;BME280;61313;48.396;10.008;2023-03-01T06:09:06;96616.38;;;0.18;63.94
8253;BME280;61313;48.396;10.008;2023-03-01T06:11:35;96617.25;;;0.05;64.17
8253;BME280;61313;48.396;10.008;2023-03-01T06:14:01;96616.38;;;0.09;64.53
8253;BME280;61313;48.396;10.008;2023-03-01T06:16:27;96618.97;;;0.22;64.23
8253;BME280;61313;48.396;10.008;2023-03-01T06:18:53;96618.97;;;0.31;64.05
8253;BME280;61313;48.396;10.008;2023-03-01T06:21:18;96618.97;;;0.17;64.00
8253;BME280;61313;48.396;10.008;2023-03-01T06:23:47;96625.84;;;0.19;63.98
8253;BME280;61313;48.396;10.008;2023-03-01T06:26:12;96624.13;;;0.26;63.62
8253;BME280;61313;48.396;10.008;2023-03-01T06:28:38;96616.38;;;0.40;63.24
8253;BME280;61313;48.396;10.008;2023-03-01T06:31:03;96619.81;;;0.50;62.94
8253;BME280;61313;48.396;10.008;2023-03-01T06:33:29;96607.72;;;0.70;62.09
8253;BME280;61313;48.396;10.008;2023-03-01T06:35:55;96612.88;;;0.81;61.27
8253;BME280;61313;48.396;10.008;2023-03-01T06:38:22;96609.44;;;0.70;61.82
8253;BME280;61313;48.396;10.008;2023-03-01T06:40:54;96613.78;;;0.46;62.97
8253;BME280;61313;48.396;10.008;2023-03-01T06:43:22;96616.38;;;0.23;63.06
8253;BME280;61313;48.396;10.008;2023-03-01T06:45:48;96616.38;;;0.28;63.23
8253;BME280;61313;48.396;10.008;2023-03-01T06:48:14;96614.69;;;0.14;63.62
8253;BME280;61313;48.396;10.008;2023-03-01T06:50:40;96614.66;;;0.05;63.51
8253;BME280;61313;48.396;10.008;2023-03-01T06:53:05;96619.78;;;-0.03;63.74
8253;BME280;61313;48.396;10.008;2023-03-01T06:55:31;96619.78;;;-0.03;64.06
8253;BME280;61313;48.396;10.008;2023-03-01T06:57:59;96624.97;;;-0.12;64.78
8253;BME280;61313;48.396;10.008;2023-03-01T07:00:26;96623.22;;;-0.24;64.77
8253;BME280;61313;48.396;10.008;2023-03-01T07:02:51;96621.50;;;-0.20;64.52
8253;BME280;61313;48.396;10.008;2023-03-01T07:05:17;96612.06;;;-0.18;65.09
8253;BME280;61313;48.396;10.008;2023-03-01T07:07:43;96618.94;;;0.35;62.45
8253;BME280;61313;48.396;10.008;2023-03-01T07:10:11;96615.94;;;1.74;58.14
8253;BME280;61313;48.396;10.008;2023-03-01T07:12:37;96602.34;;;2.60;55.47
8253;BME280;61313;48.396;10.008;2023-03-01T07:15:03;96606.16;;;2.20;55.44
8253;BME280;61313;48.396;10.008;2023-03-01T07:17:29;96605.72;;;2.69;55.18
8253;BME280;61313;48.396;10.008;2023-03-01T07:19:56;96601.03;;;3.02;53.36
8253;BME280;61313;48.396;10.008;2023-03-01T07:22:21;96595.16;;;3.60;52.06
8253;BME280;61313;48.396;10.008;2023-03-01T07:24:47;96583.03;;;3.61;51.51
8253;BME280;61313;48.396;10.008;2023-03-01T07:27:12;96586.34;;;3.74;51.27
8253;BME280;61313;48.396;10.008;2023-03-01T07:29:38;96588.56;;;3.98;50.17
8253;BME280;61313;48.396;10.008;2023-03-01T07:32:05;96585.56;;;4.26;49.40
8253;BME280;61313;48.396;10.008;2023-03-01T07:34:30;96579.59;;;4.18;48.31
8253;BME280;61313;48.396;10.008;2023-03-01T07:36:57;96591.31;;;3.23;51.53
8253;BME280;61313;48.396;10.008;2023-03-01T07:39:23;96582.72;;;3.84;50.20
8253;BME280;61313;48.396;10.008;2023-03-01T07:41:49;96579.88;;;5.02;47.51
8253;BME280;61313;48.396;10.008;2023-03-01T07:44:14;96582.69;;;4.41;47.36
8253;BME280;61313;48.396;10.008;2023-03-01T07:46:41;96578.19;;;3.98;49.45
8253;BME280;61313;48.396;10.008;2023-03-01T07:49:07;96589.72;;;3.12;51.95
8253;BME280;61313;48.396;10.008;2023-03-01T07:51:32;96589.44;;;2.58;53.27
8253;BME280;61313;48.396;10.008;2023-03-01T07:53:58;96594.53;;;1.52;56.64
8253;BME280;61313;48.396;10.008;2023-03-01T07:56:23;96587.72;;;1.31;57.96
8253;BME280;61313;48.396;10.008;2023-03-01T07:58:49;96599.97;;;0.86;59.77
8253;BME280;61313;48.396;10.008;2023-03-01T08:01:17;96600.03;;;0.46;61.00
8253;BME280;61313;48.396;10.008;2023-03-01T08:03:44;96587.97;;;0.52;60.52
8253;BME280;61313;48.396;10.008;2023-03-01T08:06:10;96589.69;;;0.55;61.39
8253;BME280;61313;48.396;10.008;2023-03-01T08:08:36;96581.88;;;0.84;60.53
8253;BME280;61313;48.396;10.008;2023-03-01T08:11:03;96580.94;;;0.99;60.50
8253;BME280;61313;48.396;10.008;2023-03-01T08:13:29;96578.41;;;0.87;60.42
8253;BME280;61313;48.396;10.008;2023-03-01T08:16:04;96584.44;;;0.93;59.92
8253;BME280;61313;48.396;10.008;2023-03-01T08:18:30;96581.88;;;0.84;60.07
8253;BME280;61313;48.396;10.008;2023-03-01T08:21:08;96582.66;;;1.01;59.70
8253;BME280;61313;48.396;10.008;2023-03-01T08:23:34;96587.06;;;0.72;59.62
8253;BME280;61313;48.396;10.008;2023-03-01T08:26:13;96584.47;;;0.81;59.63
8253;BME280;61313;48.396;10.008;2023-03-01T08:28:40;96578.41;;;0.82;59.74
8253;BME280;61313;48.396;10.008;2023-03-01T08:31:33;96573.38;;;0.31;60.50
8253;BME280;61313;48.396;10.008;2023-03-01T08:34:02;96579.38;;;0.41;61.65
8253;BME280;61313;48.396;10.008;2023-03-01T08:36:31;96575.91;;;0.51;60.96
8253;BME280;61313;48.396;10.008;2023-03-01T08:38:57;96576.78;;;0.55;60.78
8253;BME280;61313;48.396;10.008;2023-03-01T08:41:23;96569.00;;;0.56;60.24
8253;BME280;61313;48.396;10.008;2023-03-01T08:43:49;96568.97;;;0.75;60.63
8253;BME280;61313;48.396;10.008;2023-03-01T08:46:15;96574.16;;;0.61;59.94
8253;BME280;61313;48.396;10.008;2023-03-01T08:48:40;96571.59;;;0.61;60.79
8253;BME280;61313;48.396;10.008;2023-03-01T08:51:16;96575.00;;;0.72;60.18
8253;BME280;61313;48.396;10.008;2023-03-01T08:53:42;96573.25;;;0.83;59.35
8253;BME280;61313;48.396;10.008;2023-03-01T08:56:08;96569.03;;;0.53;60.24
8253;BME280;61313;48.396;10.008;2023-03-01T08:58:34;96559.56;;;0.41;60.81
8253;BME280;61313;48.396;10.008;2023-03-01T09:01:00;96557.88;;;0.36;60.86
8253;BME280;61313;48.396;10.008;2023-03-01T09:03:27;96569.06;;;0.46;61.40
8253;BME280;61313;48.396;10.008;2023-03-01T09:05:53;96562.09;;;0.74;60.40
8253;BME280;61313;48.396;10.008;2023-03-01T09:08:19;96555.13;;;0.97;59.79
8253;BME280;61313;48.396;10.008;2023-03-01T09:10:45;96552.53;;;1.02;59.97
8253;BME280;61313;48.396;10.008;2023-03-01T09:13:10;96563.81;;;0.81;59.70
8253;BME280;61313;48.396;10.008;2023-03-01T09:15:37;96567.28;;;0.68;59.96
8253;BME280;61313;48.396;10.008;2023-03-01T09:18:03;96558.66;;;0.72;59.97
8253;BME280;61313;48.396;10.008;2023-03-01T09:20:30;96555.97;;;1.02;59.58
8253;BME280;61313;48.396;10.008;2023-03-01T09:22:56;96556.84;;;0.98;59.17
8253;BME280;61313;48.396;10.008;2023-03-01T09:25:21;96563.69;;;1.05;60.58
8253;BME280;61313;48.396;10.008;2023-03-01T09:27:47;96549.03;;;1.12;59.45
8253;BME280;61313;48.396;10.008;2023-03-01T09:30:13;96547.22;;;1.30;58.54
8253;BME280;61313;48.396;10.008;2023-03-01T09:32:38;96540.16;;;1.58;58.78
8253;BME280;61313;48.396;10.008;2023-03-01T09:35:08;96540.25;;;1.39;58.61
8253;BME280;61313;48.396;10.008;2023-03-01T09:37:34;96543.81;;;1.23;58.65
8253;BME280;61313;48.396;10.008;2023-03-01T09:40:00;96554.19;;;1.11;58.69
8253;BME280;61313;48.396;10.008;2023-03-01T09:42:27;96524.94;;;1.05;59.69
8253;BME280;61313;48.396;10.008;2023-03-01T09:45:00;96532.66;;;1.09;59.98
8253;BME280;61313;48.396;10.008;2023-03-01T09:47:29;96528.34;;;1.15;59.90
8253;BME280;61313;48.396;10.008;2023-03-01T09:50:06;96530.91;;;1.17;58.79
8253;BME280;61313;48.396;10.008;2023-03-01T09:53:00;96529.09;;;1.34;58.76
8253;BME280;61313;48.396;10.008;2023-03-01T09:55:31;96541.31;;;1.08;60.01
8253;BME280;61313;48.396;10.008;2023-03-01T09:58:06;96547.34;;;1.05;59.84
8253;BME280;61313;48.396;10.008;2023-03-01T10:00:43;96537.78;;;1.18;59.46
8253;BME280;61313;48.396;10.008;2023-03-01T10:03:26;96540.38;;;1.25;59.33
8253;BME280;61313;48.396;10.008;2023-03-01T10:08:36;96541.94;;;1.48;59.47
8253;BME280;61313;48.396;10.008;2023-03-01T10:11:05;96524.47;;;1.82;58.41
8253;BME280;61313;48.396;10.008;2023-03-01T10:13:57;96520.72;;;2.19;56.77
8253;BME280;61313;48.396;10.008;2023-03-01T10:19:23;96509.34;;;2.33;56.47
8253;BME280;61313;48.396;10.008;2023-03-01T10:21:51;96514.59;;;2.27;56.52
8253;BME280;61313;48.396;10.008;2023-03-01T10:24:19;96515.66;;;2.08;56.92
8253;BME280;61313;48.396;10.008;2023-03-01T10:27:00;96518.31;;;1.99;57.25
8253;BME280;61313;48.396;10.008;2023-03-01T10:29:49;96511.69;;;1.64;58.13
8253;BME280;61313;48.396;10.008;2023-03-01T10:32:18;96513.22;;;1.86;57.25
8253;BME280;61313;48.396;10.008;2023-03-01T10:34:47;96505.50;;;1.83;57.73
8253;BME280;61313;48.396;10.008;2023-03-01T10:39:58;96499.59;;;2.57;55.83
8253;BME280;61313;48.396;10.008;2023-03-01T10:42:31;96509.22;;;2.49;54.52
8253;BME280;61313;48.396;10.008;2023-03-01T10:44:56;96496.00;;;2.72;54.75
8253;BME280;61313;48.396;10.008;2023-03-01T10:47:27;96494.63;;;3.14;53.56
8253;BME280;61313;48.396;10.008;2023-03-01T10:52:22;96483.00;;;3.42;53.00
8253;BME280;61313;48.396;10.008;2023-03-01T10:54:59;96483.78;;;3.47;52.86
8253;BME280;61313;48.396;10.008;2023-03-01T10:57:30;96475.22;;;3.40;53.06
8253;BME280;61313;48.396;10.008;2023-03-01T11:00:26;96477.47;;;3.63;51.44
8253;BME280;61313;48.396;10.008;2023-03-01T11:03:04;96475.31;;;3.90;51.22
8253;BME280;61313;48.396;10.008;2023-03-01T11:05:35;96468.06;;;3.56;52.00
8253;BME280;61313;48.396;10.008;2023-03-01T11:08:02;96455.03;;;3.60;51.69
8253;BME280;61313;48.396;10.008;2023-03-01T11:10:31;96454.47;;;3.40;52.29
8253;BME280;61313;48.396;10.008;2023-03-01T11:13:18;96443.19;;;3.44;52.02
8253;BME280;61313;48.396;10.008;2023-03-01T11:16:01;96447.56;;;3.41;51.93
8253;BME280;61313;48.396;10.008;2023-03-01T11:18:30;96436.34;;;3.93;51.64
8253;BME280;61313;48.396;10.008;2023-03-01T11:20:57;96441.84;;;3.73;51.78
8253;BME280;61313;48.396;10.008;2023-03-01T11:23:24;96416.63;;;4.29;51.14
8253;BME280;61313;48.396;10.008;2023-03-01T11:26:00;96410.00;;;4.58;50.35
8253;BME280;61313;48.396;10.008;2023-03-01T11:28:28;96423.59;;;4.72;49.28
8253;BME280;61313;48.396;10.008;2023-03-01T11:31:08;96420.81;;;4.36;49.47
8253;BME280;61313;48.396;10.008;2023-03-01T11:38:53;96416.97;;;4.57;49.41
8253;BME280;61313;48.396;10.008;2023-03-01T11:41:21;96401.56;;;4.48;49.93
8253;BME280;61313;48.396;10.008;2023-03-01T11:44:03;96407.41;;;4.58;49.42
8253;BME280;61313;48.396;10.008;2023-03-01T11:57:51;96376.19;;;5.01;48.85
8253;BME280;61313;48.396;10.008;2023-03-01T12:12:05;96355.78;;;4.81;48.38
8253;BME280;61313;48.396;10.008;2023-03-01T12:17:46;96344.06;;;5.02;49.03
8253;BME280;61313;48.396;10.008;2023-03-01T12:25:45;96324.41;;;5.26;48.28
8253;BME280;61313;48.396;10.008;2023-03-01T12:33:57;96313.41;;;5.51;48.41
8253;BME280;61313;48.396;10.008;2023-03-01T12:36:38;96309.25;;;5.44;47.50
8253;BME280;61313;48.396;10.008;2023-03-01T12:39:36;96293.81;;;5.70;47.17
8253;BME280;61313;48.396;10.008;2023-03-01T12:50:26;96280.28;;;5.23;48.06
8253;BME280;61313;48.396;10.008;2023-03-01T12:52:56;96282.56;;;5.36;47.77
8253;BME280;61313;48.396;10.008;2023-03-01T13:03:59;96268.84;;;5.29;48.90
8253;BME280;61313;48.396;10.008;2023-03-01T13:11:43;96265.97;;;5.74;47.85
8253;BME280;61313;48.396;10.008;2023-03-01T13:16:48;96276.25;;;5.46;48.42
8253;BME280;61313;48.396;10.008;2023-03-01T13:19:23;96278.09;;;5.41;48.33
8253;BME280;61313;48.396;10.008;2023-03-01T13:21:51;96274.41;;;5.49;47.92
8253;BME280;61313;48.396;10.008;2023-03-01T13:24:26;96278.66;;;5.54;47.98
8253;BME280;61313;48.396;10.008;2023-03-01T13:29:46;96278.38;;;5.30;48.69
8253;BME280;61313;48.396;10.008;2023-03-01T13:32:38;96272.31;;;5.29;49.03
8253;BME280;61313;48.396;10.008;2023-03-01T13:37:39;96260.19;;;5.28;49.75
8253;BME280;61313;48.396;10.008;2023-03-01T13:42:54;96266.94;;;5.36;49.33
8253;BME280;61313;48.396;10.008;2023-03-01T13:45:24;96278.97;;;5.41;48.95
8253;BME280;61313;48.396;10.008;2023-03-01T13:47:57;96265.03;;;5.44;48.99
8253;BME280;61313;48.396;10.008;2023-03-01T13:50:25;96272.41;;;5.59;48.74
8253;BME280;61313;48.396;10.008;2023-03-01T13:55:21;96283.97;;;5.82;48.28
8253;BME280;61313;48.396;10.008;2023-03-01T13:57:51;96282.00;;;5.57;48.64
8253;BME280;61313;48.396;10.008;2023-03-01T14:05:29;96279.00;;;5.72;48.22
8253;BME280;61313;48.396;10.008;2023-03-01T14:07:55;96279.63;;;5.48;49.33
8253;BME280;61313;48.396;10.008;2023-03-01T14:10:21;96287.88;;;5.65;48.35
8253;BME280;61313;48.396;10.008;2023-03-01T14:13:20;96287.41;;;5.49;48.77
8253;BME280;61313;48.396;10.008;2023-03-01T14:15:56;96293.22;;;5.61;48.60
8253;BME280;61313;48.396;10.008;2023-03-01T14:18:42;96297.16;;;5.76;48.50
8253;BME280;61313;48.396;10.008;2023-03-01T14:21:14;96298.78;;;5.45;48.98
8253;BME280;61313;48.396;10.008;2023-03-01T14:23:41;96292.38;;;5.60;49.25
8253;BME280;61313;48.396;10.008;2023-03-01T14:26:08;96292.72;;;5.79;48.38
8253;BME280;61313;48.396;10.008;2023-03-01T14:28:37;96293.25;;;5.92;48.69
8253;BME280;61313;48.396;10.008;2023-03-01T14:33:55;96281.88;;;5.96;47.73
8253;BME280;61313;48.396;10.008;2023-03-01T14:36:26;96271.13;;;6.08;47.75
8253;BME280;61313;48.396;10.008;2023-03-01T14:38:52;96274.44;;;6.13;47.92
8253;BME280;61313;48.396;10.008;2023-03-01T14:41:27;96276.75;;;5.91;48.30
8253;BME280;61313;48.396;10.008;2023-03-01T14:43:59;96273.97;;;5.99;48.45
8253;BME280;61313;48.396;10.008;2023-03-01T14:46:30;96270.25;;;5.75;48.72
8253;BME280;61313;48.396;10.008;2023-03-01T14:49:02;96265.09;;;5.73;49.22
8253;BME280;61313;48.396;10.008;2023-03-01T14:51:28;96266.81;;;5.75;48.70
8253;BME280;61313;48.396;10.008;2023-03-01T14:53:54;96267.69;;;5.73;48.67
8253;BME280;61313;48.396;10.008;2023-03-01T14:56:20;96260.78;;;5.72;49.36
8253;BME280;61313;48.396;10.008;2023-03-01T14:58:52;96259.97;;;5.70;49.19
8253;BME280;61313;48.396;10.008;2023-03-01T15:01:18;96254.72;;;5.72;48.89
8253;BME280;61313;48.396;10.008;2023-03-01T15:03:47;96249.47;;;5.73;49.43
8253;BME280;61313;48.396;10.008;2023-03-01T15:06:18;96249.00;;;5.90;48.74
8253;BME280;61313;48.396;10.008;2023-03-01T15:08:48;96240.94;;;6.01;48.17
8253;BME280;61313;48.396;10.008;2023-03-01T15:11:29;96227.31;;;6.21;47.84
8253;BME280;61313;48.396;10.008;2023-03-01T15:13:55;96219.91;;;6.37;47.83